10h33 EDT


 

Suivi/Infos de l'aéroport


-ou-


 

Suivi des vols en temps réelTradewind #590

Thumbnail
Tradewind 590
GPD590 · "Goodspeed" (tous les vols)
Nantucket Memorial ()
Waterbury-Oxford ()
20h06 EDT
20h45 EDT
Prévu: 20h06 EDT
Moyenne: 20h06 EDT
Prévu: 20h51 EDT
Moyenne: 20h39 EDT
Durée: 39 minutes
jeudi, 28 août 2014
Statut A atterri il y a plus de 13 heures (journal de vol & graphique)
Avion Pilatus PC-12 (monoturbopropulseur) (PC12/G – photos)
Vitesse Plan de vol: 185 kts (graphique)
Altitude (graphique)
Distance En ligne droite 258 km    Prévue 278 km    Parcourue 341 km
Route V34 SEY SEY235 V46 HTO HTO302 KEYED (Décoder)
JOURNAL DE L'ACTIVITE
Vous voulez une recherche complète sur l'historique de GPD590 depuis 1998? Achetez maintenant. Recevez-le dans l'heure.
Date Avion Provenance Destination Départ Arrivée Durée
28-08-2014 PC12/GNantucket Memorial ()Waterbury-Oxford () 20h06 EDT 20h45 EDT 0:39
28-08-2014 PC12/GNantucket Memorial ()Westchester County () 17h18 EDT 18h02 EDT 0:44
28-08-2014 UnknownR BDR 147 5Nantucket Memorial () 19h47 UTC 16h30 EDT 0:43
28-08-2014 PC12Nantucket Memorial ()Westchester County () 14h09 EDT 14h59 EDT 0:50
28-08-2014 PC12Westchester County ()Nantucket Memorial () 12h03 EDT 13h10 EDT 1:06
28-08-2014 PC12/GNantucket Memorial ()Westchester County () 11h04 EDT 11h31 EDT 0:26
28-08-2014 PC12/GGroton-New London ()Nantucket Memorial () 09h27 EDT 09h57 EDT 0:30
27-08-2014 PC12Nantucket Memorial ()Westchester County () 12h18 EDT 13h02 EDT 0:44
27-08-2014 PC12/GGroton-New London ()Nantucket Memorial () 10h34 EDT 11h48 EDT 1:13
25-08-2014 PC12Teterboro ()Nantucket Memorial () 17h01 EDT 17h47 EDT 0:46
25-08-2014 PC12Cape Cod Coast Guard Air Station ()Teterboro () 10h21 EDT 11h04 EDT 0:43
25-08-2014 PC12/GTeterboro ()Nantucket Memorial () 08h23 EDT 09h26 EDT 1:03
25-08-2014 PC12/GNantucket Memorial ()Teterboro () 07h06 EDT 07h52 EDT 0:46
25-08-2014 PC12Int'l Bradley ()Nantucket Memorial () 05h37 EDT 06h54 EDT 1:17
24-08-2014 PC12Nantucket Memorial ()Teterboro () 20h01 EDT 20h48 EDT 0:47
24-08-2014 PC12Nantucket Memorial ()Teterboro () 16h49 EDT 17h37 EDT 0:48
24-08-2014 PC12Teterboro ()Nantucket Memorial () 15h03 EDT 15h47 EDT 0:43
22-08-2014 PC12/GTeterboro ()Nantucket Memorial () 19h17 EDT 20h14 EDT 0:57
22-08-2014 PC12Nantucket Memorial ()Teterboro () 17h22 EDT 18h22 EDT 1:00
22-08-2014 PC12/GTeterboro ()Nantucket Memorial () 15h59 EDT 16h51 EDT 0:51
22-08-2014 PC12/GNantucket Memorial ()Teterboro () 13h59 EDT 15h00 EDT 1:01
22-08-2014 PC12/GTeterboro ()Nantucket Memorial () 12h13 EDT 13h13 EDT 1:00
22-08-2014 PC12/GNantucket Memorial ()Teterboro () 10h19 EDT 11h28 EDT 1:09
22-08-2014 PC12/GTeterboro ()Nantucket Memorial () 08h43 EDT 09h43 EDT 1:00
22-08-2014 PC12/GWaterbury-Oxford ()Teterboro () 07h26 EDT 07h59 EDT 0:32
21-08-2014 PC12/GNantucket Memorial ()Waterbury-Oxford () 20h25 EDT 21h11 EDT 0:46
21-08-2014 PC12/GTeterboro ()Nantucket Memorial () 19h21 EDT 20h38 EDT (?) 1:17
21-08-2014 PC12/GNantucket Memorial ()Teterboro () 17h37 EDT 18h25 EDT 0:47
21-08-2014 PC12/GTeterboro ()Nantucket Memorial () 15h57 EDT 16h55 EDT 0:58
20-08-2014 PC12/GNantucket Memorial ()Waterbury-Oxford () 10h19 EDT 10h57 EDT 0:38
20-08-2014 PC12/GWestchester County ()Nantucket Memorial () 09h03 EDT 09h49 EDT 0:45
20-08-2014 PC12/GWaterbury-Oxford ()Westchester County () 07h50 EDT 08h07 EDT 0:17
18-08-2014 PC12Nantucket Memorial ()Teterboro () 10h37 EDT 11h27 EDT 0:50
18-08-2014 PC12Nantucket Memorial ()Teterboro () 07h12 EDT 08h03 EDT 0:51
18-08-2014 UnknownR PVD 262 51Nantucket Memorial () 09h42 UTC 06h11 EDT 0:28
17-08-2014 PC12Nantucket Memorial ()Teterboro () 20h14 EDT 21h07 EDT 0:53
17-08-2014 PC12Nantucket Memorial ()Teterboro () 16h51 EDT 17h39 EDT 0:48
17-08-2014 PC12Teterboro ()Nantucket Memorial () 14h57 EDT 15h37 EDT 0:39
17-08-2014 PC12Nantucket Memorial ()Teterboro () 13h25 EDT 14h18 EDT 0:53
17-08-2014 PC12/GGroton-New London ()Nantucket Memorial () 11h31 EDT 12h03 EDT 0:32
17-08-2014 UnknownEast Hampton ()Nantucket Memorial () 11h10 EDT 12h05 EDT 0:54
16-08-2014 PC12Nantucket Memorial ()Westchester County () 18h11 EDT 19h02 EDT 0:50
16-08-2014 PC12/AWestchester County ()Nantucket Memorial () 13h54 EDT 14h45 EDT 0:50
16-08-2014 PC12/GNantucket Memorial ()Westchester County () 12h03 EDT 12h51 EDT 0:48
16-08-2014 PC12/GWestchester County ()Nantucket Memorial () 08h56 EDT 09h46 EDT 0:50
15-08-2014 PC12Nantucket Memorial ()Waterbury-Oxford () 20h34 EDT 21h09 EDT 0:35
15-08-2014 PC12Teterboro ()Nantucket Memorial () 19h19 EDT 20h13 EDT 0:53
15-08-2014 PC12Nantucket Memorial ()Teterboro () 17h21 EDT 18h13 EDT 0:51
15-08-2014 PC12Teterboro ()Nantucket Memorial () 15h57 EDT 16h48 EDT 0:51
15-08-2014 PC12Nantucket Memorial ()Teterboro () 13h58 EDT 14h50 EDT 0:52
15-08-2014 PC12Teterboro ()Nantucket Memorial () 12h25 EDT 13h05 EDT 0:39
15-08-2014 PC12Nantucket Memorial ()Teterboro () 10h36 EDT 11h31 EDT 0:55
15-08-2014 PC12Teterboro ()Nantucket Memorial () 09h14 EDT 09h53 EDT 0:38
Les membres inscrits (l'inscription est gratuite et facile!) voient 4 months d'historique. S'inscrire